Time;durP1;ratioP1;P1;durP2;ratioP2;P2;SDS_P1;SDS_P2;PMS_P1;PMS_P2;Temp;Humidity;BMP_temperature;BMP_pressure;BME280_temperature;BME280_humidity;BME280_pressure;Samples;Min_cycle;Max_cycle;Signal;HPM_P1;HPM_P2
2021/12/14 00:01:08;;;;;;;;;3.00;1.75;;;;;22.01;39.84;102589.75;5026182;28;45919;-71
2021/12/14 00:03:39;;;;;;;;;2.00;2.00;;;;;22.11;39.41;102582.66;5021393;28;45479;-71
2021/12/14 00:06:04;;;;;;;;;1.75;1.75;;;;;22.12;39.33;102579.00;5020308;28;45440;-71
2021/12/14 00:08:36;;;;;;;;;5.50;5.00;;;;;21.68;38.48;102523.69;5017819;27;45447;-75
2021/12/14 00:16:07;;;;;;;;;2.00;2.00;;;;;22.10;39.04;102606.63;5027415;28;45410;-74
2021/12/14 00:18:34;;;;;;;;;3.00;2.00;;;;;22.10;39.17;102612.78;5027745;28;45295;-74
2021/12/14 00:21:08;;;;;;;;;3.50;2.00;;;;;22.12;39.14;102618.78;5031923;28;46886;-73
2021/12/14 00:26:20;;;;;;;;;2.00;2.00;;;;;22.09;39.13;102611.13;5018554;28;45563;-73
2021/12/14 00:28:48;;;;;;;;;3.00;3.00;;;;;22.10;38.97;102622.53;5003668;28;45582;-73
2021/12/14 00:31:16;;;;;;;;;2.50;2.50;;;;;22.13;39.38;102633.72;5018757;28;46059;-73
2021/12/14 00:33:46;;;;;;;;;1.75;1.75;;;;;22.12;39.00;102637.31;5020110;27;45766;-73
2021/12/14 00:36:12;;;;;;;;;1.00;1.00;;;;;22.13;39.27;102635.53;5015254;28;45393;-74
2021/12/14 00:38:39;;;;;;;;;3.00;3.00;;;;;22.12;39.29;102647.94;5016214;27;45491;-73
2021/12/14 00:41:14;;;;;;;;;3.25;2.00;;;;;22.01;39.09;102624.22;5018776;28;45293;-73
2021/12/14 00:43:39;;;;;;;;;2.25;2.00;;;;;22.12;39.34;102644.47;5027318;28;45483;-73
2021/12/14 00:46:05;;;;;;;;;2.50;2.00;;;;;22.11;39.58;102645.44;5031734;27;45406;-73
2021/12/14 00:48:31;;;;;;;;;4.75;2.50;;;;;22.04;38.93;102647.78;5031649;28;45814;-73
2021/12/14 00:50:59;;;;;;;;;2.00;2.00;;;;;22.12;39.45;102652.41;5031618;28;45533;-73
2021/12/14 00:53:25;;;;;;;;;1.50;1.50;;;;;22.12;39.00;102661.19;5033990;27;45347;-73
2021/12/14 00:55:52;;;;;;;;;3.00;2.25;;;;;22.12;38.93;102657.72;5010493;27;45531;-74
2021/12/14 00:58:20;;;;;;;;;2.00;2.00;;;;;22.11;38.92;102648.06;5025903;28;45478;-73
2021/12/14 01:01:01;;;;;;;;;0.50;0.50;;;;;22.02;39.04;102642.63;5031223;28;47314;-73
2021/12/14 01:03:30;;;;;;;;;1.25;1.25;;;;;22.10;39.38;102663.13;5030389;27;45470;-73
2021/12/14 01:05:55;;;;;;;;;4.00;2.00;;;;;22.02;38.72;102652.38;5012400;28;45439;-74
2021/12/14 01:08:25;;;;;;;;;1.50;1.50;;;;;22.10;39.31;102672.91;5032751;28;45251;-73
2021/12/14 01:11:01;;;;;;;;;2.00;2.00;;;;;22.09;39.01;102666.78;5009849;28;46364;-73
2021/12/14 01:13:29;;;;;;;;;2.50;2.50;;;;;22.10;38.81;102667.59;5025872;28;45438;-73
2021/12/14 01:19:02;;;;;;;;;2.00;2.00;;;;;21.95;39.26;102641.47;5031337;28;45484;-73
2021/12/14 01:27:04;;;;;;;;;1.75;1.75;;;;;22.09;39.43;102637.63;4995732;28;45308;-73
2021/12/14 01:29:31;;;;;;;;;3.00;3.00;;;;;21.78;38.92;102603.22;5009303;28;45450;-73
2021/12/14 01:32:00;;;;;;;;;3.75;2.25;;;;;22.06;39.10;102651.16;5011532;28;45572;-74
2021/12/14 01:34:30;;;;;;;;;4.00;2.00;;;;;22.06;38.92;102644.03;5011106;28;45393;-73
2021/12/14 01:37:05;;;;;;;;;1.75;1.75;;;;;22.07;38.80;102637.75;5011285;28;45394;-73
2021/12/14 01:42:03;;;;;;;;;1.75;1.75;;;;;22.07;39.24;102637.75;4994759;28;46349;-73
2021/12/14 01:44:33;;;;;;;;;1.75;1.75;;;;;22.07;39.18;102636.91;5013281;28;45310;-73
2021/12/14 01:47:05;;;;;;;;;2.00;2.00;;;;;22.06;38.75;102630.78;5011901;28;45224;-73
2021/12/14 01:49:31;;;;;;;;;3.25;2.25;;;;;22.01;38.95;102632.16;5009246;28;45512;-73
2021/12/14 01:52:03;;;;;;;;;3.75;3.75;;;;;21.95;38.71;102630.88;5010631;28;46035;-73
2021/12/14 01:54:34;;;;;;;;;3.25;2.00;;;;;21.97;39.00;102639.53;5009639;28;45574;-73
2021/12/14 01:57:05;;;;;;;;;2.00;2.00;;;;;22.02;39.32;102639.13;4995592;28;45336;-73
2021/12/14 01:59:36;;;;;;;;;3.00;1.75;;;;;22.06;39.28;102646.69;5008940;28;45400;-74
2021/12/14 02:02:19;;;;;;;;;2.00;2.00;;;;;22.07;38.54;102648.34;5009126;28;46175;-73
2021/12/14 02:04:46;;;;;;;;;2.25;1.00;;;;;22.06;38.83;102657.28;5010599;28;45578;-73
2021/12/14 02:07:15;;;;;;;;;3.00;3.00;;;;;21.95;39.04;102646.78;5010477;28;45361;-73
2021/12/14 02:09:42;;;;;;;;;2.00;2.00;;;;;21.94;38.77;102655.69;5010235;28;45323;-73
2021/12/14 02:12:20;;;;;;;;;2.50;2.00;;;;;22.01;38.99;102671.91;5010585;28;46934;-73
2021/12/14 02:14:47;;;;;;;;;1.75;1.75;;;;;22.04;39.09;102685.72;5010687;28;45408;-73
2021/12/14 02:17:16;;;;;;;;;2.00;2.00;;;;;22.04;38.65;102683.06;5012668;28;45518;-73
2021/12/14 02:19:43;;;;;;;;;2.00;2.00;;;;;22.04;39.16;102685.72;5010412;28;45478;-73
2021/12/14 02:22:09;;;;;;;;;2.00;2.00;;;;;22.03;39.14;102681.41;5014022;27;45485;-73
2021/12/14 02:24:38;;;;;;;;;2.00;2.00;;;;;22.04;38.50;102680.41;5029804;28;45268;-74
2021/12/14 02:27:04;;;;;;;;;2.75;2.75;;;;;22.04;38.65;102667.16;5030536;28;45598;-73
2021/12/14 02:29:35;;;;;;;;;3.00;3.00;;;;;22.01;39.21;102648.06;5031931;28;45471;-73
2021/12/14 02:32:06;;;;;;;;;2.00;2.00;;;;;22.03;39.08;102652.25;5029595;28;47584;-73
2021/12/14 02:34:39;;;;;;;;;3.25;3.00;;;;;22.03;39.22;102643.47;5010955;27;45547;-73
2021/12/14 02:37:04;;;;;;;;;1.25;1.25;;;;;22.03;38.93;102646.09;5030156;28;45491;-74
2021/12/14 02:39:48;;;;;;;;;2.50;2.50;;;;;22.03;39.13;102646.94;5029754;28;45456;-73
2021/12/14 02:42:25;;;;;;;;;3.50;3.00;;;;;21.80;38.81;102609.22;5014695;28;46379;-73
2021/12/14 02:44:54;;;;;;;;;3.25;3.25;;;;;22.00;39.00;102635.78;5029947;28;45369;-73
2021/12/14 02:47:20;;;;;;;;;1.00;1.00;;;;;22.02;38.55;102642.63;5032202;27;45361;-73
2021/12/14 02:49:48;;;;;;;;;3.25;3.00;;;;;22.02;39.13;102639.97;5030035;27;45568;-73
2021/12/14 02:52:24;;;;;;;;;2.00;2.00;;;;;21.98;39.04;102637.72;5029252;28;46230;-73
2021/12/14 02:54:57;;;;;;;;;2.00;2.00;;;;;21.98;38.51;102633.28;5029704;28;45516;-73
2021/12/14 02:57:30;;;;;;;;;3.00;1.25;;;;;22.00;39.02;102644.56;5029927;28;45528;-73
2021/12/14 02:59:56;;;;;;;;;2.00;2.00;;;;;21.90;38.52;102622.50;5029967;28;45430;-73
2021/12/14 03:02:29;;;;;;;;;1.50;1.50;;;;;22.01;38.90;102654.22;5034286;28;46945;-73
2021/12/14 03:04:59;;;;;;;;;2.50;2.50;;;;;22.01;39.10;102654.22;5032872;28;45259;-74
2021/12/14 03:07:29;;;;;;;;;2.25;1.00;;;;;22.01;39.09;102650.72;5032473;27;45373;-73
2021/12/14 03:10:07;;;;;;;;;2.75;2.75;;;;;22.01;38.98;102642.75;5032972;28;45599;-73
2021/12/14 03:12:40;;;;;;;;;3.00;2.00;;;;;22.01;38.57;102640.09;5031237;28;46300;-73
2021/12/14 03:15:17;;;;;;;;;2.00;2.00;;;;;22.02;39.08;102647.06;5017896;28;45442;-73
2021/12/14 03:17:45;;;;;;;;;3.75;1.75;;;;;21.96;38.78;102640.53;5033076;28;45321;-73
2021/12/14 03:20:24;;;;;;;;;2.00;2.00;;;;;21.99;38.69;102656.13;5034636;28;45454;-73
2021/12/14 03:23:14;;;;;;;;;3.75;2.25;;;;;21.93;38.80;102633.69;5031836;27;46714;-73
2021/12/14 03:25:44;;;;;;;;;2.00;2.00;;;;;22.01;39.11;102635.66;5030895;27;45446;-73
2021/12/14 03:28:12;;;;;;;;;2.00;2.00;;;;;22.01;38.60;102637.47;5032235;28;45233;-73
2021/12/14 03:30:46;;;;;;;;;2.00;2.00;;;;;22.01;38.42;102633.00;5032750;28;45508;-73
2021/12/14 03:33:18;;;;;;;;;2.50;2.50;;;;;21.99;38.78;102626.16;5032540;28;46090;-73
2021/12/14 03:36:09;;;;;;;;;2.25;2.25;;;;;22.02;38.86;102632.00;5032509;28;45615;-73
2021/12/14 03:38:50;;;;;;;;;2.50;2.00;;;;;21.97;39.04;102631.59;5034298;28;45446;-73
2021/12/14 03:41:25;;;;;;;;;4.25;1.50;;;;;22.00;38.49;102644.56;5032970;28;45415;-73
2021/12/14 03:43:59;;;;;;;;;2.25;2.25;;;;;21.95;38.48;102631.72;5032167;27;45449;-73
2021/12/14 03:46:30;;;;;;;;;1.75;1.75;;;;;22.00;38.50;102644.56;5032410;27;45356;-74
2021/12/14 03:48:56;;;;;;;;;4.25;2.75;;;;;21.93;39.06;102641.63;5032325;27;45415;-73
2021/12/14 03:51:23;;;;;;;;;2.25;2.25;;;;;21.96;38.47;102637.88;5030798;27;45582;-73
2021/12/14 03:53:55;;;;;;;;;3.00;3.00;;;;;21.99;38.58;102640.22;5032227;28;47310;-73
2021/12/14 03:56:22;;;;;;;;;3.00;3.00;;;;;22.00;38.99;102644.56;5034270;28;45425;-72
2021/12/14 03:58:49;;;;;;;;;4.50;3.50;;;;;21.92;38.34;102632.00;5030694;27;45463;-72
2021/12/14 04:01:25;;;;;;;;;3.00;1.75;;;;;21.94;38.76;102631.84;5011871;27;45740;-74
2021/12/14 04:03:55;;;;;;;;;3.00;3.00;;;;;21.99;38.88;102640.22;5021490;28;47389;-74
2021/12/14 04:06:21;;;;;;;;;2.50;2.50;;;;;21.79;38.73;102605.72;5031767;28;45454;-74
2021/12/14 04:08:48;;;;;;;;;2.00;2.00;;;;;21.99;38.99;102634.13;5032091;28;45870;-74
2021/12/14 04:11:15;;;;;;;;;3.50;3.50;;;;;21.98;39.03;102635.91;5034020;28;45517;-72
2021/12/14 04:13:45;;;;;;;;;2.50;2.50;;;;;21.91;38.39;102624.19;5031590;28;46970;-73
2021/12/14 04:16:14;;;;;;;;;3.50;3.50;;;;;21.99;38.47;102642.06;5031910;28;45455;-73
2021/12/14 04:18:40;;;;;;;;;2.00;2.00;;;;;21.99;38.78;102647.38;5030916;27;45438;-73
2021/12/14 04:21:06;;;;;;;;;2.00;2.00;;;;;21.92;38.62;102641.75;5030128;28;45398;-73
2021/12/14 04:23:38;;;;;;;;;4.00;2.25;;;;;21.99;38.81;102652.66;5033562;28;46380;-73
2021/12/14 04:26:05;;;;;;;;;3.25;3.25;;;;;21.96;38.40;102654.59;5033950;28;45423;-73
2021/12/14 04:28:36;;;;;;;;;2.00;2.00;;;;;21.98;39.00;102659.78;5032135;27;45528;-73
2021/12/14 04:31:02;;;;;;;;;6.50;3.00;;;;;21.83;38.98;102635.44;5030465;27;45509;-72
2021/12/14 04:33:32;;;;;;;;;4.00;4.00;;;;;21.98;38.48;102654.47;5031713;28;47093;-73
2021/12/14 04:36:02;;;;;;;;;2.25;2.25;;;;;21.99;38.34;102661.44;5031638;27;45571;-73
2021/12/14 04:38:30;;;;;;;;;2.75;2.75;;;;;21.99;38.91;102660.63;5029785;28;45420;-72
2021/12/14 04:52:06;;;;;;;;;2.25;2.25;;;;;21.97;38.32;102658.09;5031606;28;45448;-74
2021/12/14 04:54:31;;;;;;;;;2.00;2.00;;;;;21.96;38.54;102649.28;5031476;28;45809;-73
2021/12/14 04:56:58;;;;;;;;;2.25;2.25;;;;;21.96;38.38;102654.59;5014482;27;45352;-74
2021/12/14 04:59:29;;;;;;;;;3.00;3.00;;;;;21.98;38.69;102661.56;5033853;27;45386;-72
2021/12/14 05:02:01;;;;;;;;;3.25;3.25;;;;;21.62;38.41;102615.16;5031347;28;45352;-73
2021/12/14 05:04:27;;;;;;;;;2.50;2.50;;;;;21.98;38.80;102666.88;5030941;27;46078;-73
2021/12/14 05:07:03;;;;;;;;;2.00;2.00;;;;;21.96;38.82;102662.53;5031142;28;45443;-73
2021/12/14 05:09:36;;;;;;;;;2.75;2.00;;;;;21.98;38.74;102665.06;5030138;28;45634;-73
2021/12/14 05:12:16;;;;;;;;;2.00;2.00;;;;;21.98;38.69;102664.22;5014545;28;45248;-73
2021/12/14 05:14:44;;;;;;;;;2.00;2.00;;;;;21.98;38.31;102666.88;5029775;28;45462;-73
2021/12/14 05:17:21;;;;;;;;;5.25;3.00;;;;;21.99;38.31;102663.28;5032435;28;45389;-73
2021/12/14 05:19:49;;;;;;;;;3.25;3.25;;;;;21.98;38.53;102665.06;5030674;28;45629;-73
2021/12/14 05:22:24;;;;;;;;;1.00;1.00;;;;;21.89;38.14;102650.81;5030501;27;45582;-74
2021/12/14 05:24:53;;;;;;;;;1.75;1.75;;;;;21.98;38.40;102666.88;5030491;28;46500;-73
2021/12/14 05:27:26;;;;;;;;;2.00;2.00;;;;;21.93;38.54;102662.00;5031199;28;45474;-73
2021/12/14 05:29:51;;;;;;;;;2.00;2.00;;;;;21.96;38.14;102672.31;5013007;28;45342;-73
2021/12/14 05:32:18;;;;;;;;;2.50;2.50;;;;;21.90;38.39;102665.75;5031503;28;45380;-73
2021/12/14 05:34:46;;;;;;;;;2.25;2.25;;;;;21.97;38.69;102674.00;5030925;28;46362;-73
2021/12/14 05:37:18;;;;;;;;;3.75;3.75;;;;;21.88;38.79;102664.22;5032086;28;45419;-73
2021/12/14 05:39:53;;;;;;;;;2.50;2.00;;;;;21.98;38.79;102680.13;5029884;28;45489;-73
2021/12/14 05:45:13;;;;;;;;;2.00;2.00;;;;;21.86;38.87;102661.66;5015281;28;45808;-73
2021/12/14 05:47:54;;;;;;;;;2.00;2.00;;;;;21.80;38.68;102665.69;5031193;28;45495;-73
2021/12/14 05:50:32;;;;;;;;;2.00;2.00;;;;;21.85;38.38;102679.38;5031999;28;45238;-73
2021/12/14 05:52:59;;;;;;;;;3.00;2.25;;;;;21.95;38.72;102692.69;5031097;28;45612;-73
2021/12/14 05:55:33;;;;;;;;;1.75;1.75;;;;;21.95;38.28;102697.13;5030570;28;46097;-73
2021/12/14 05:58:00;;;;;;;;;4.00;3.00;;;;;21.93;38.64;102694.63;5030513;28;45446;-73
2021/12/14 06:00:29;;;;;;;;;3.00;3.00;;;;;21.95;38.44;102703.28;5030666;27;45509;-74
2021/12/14 06:02:55;;;;;;;;;5.00;3.00;;;;;21.87;38.46;102687.22;5030438;28;45763;-73
2021/12/14 06:05:23;;;;;;;;;5.25;3.00;;;;;21.96;38.57;102698.84;5032533;27;46360;-72
2021/12/14 06:07:49;;;;;;;;;2.00;2.00;;;;;21.95;38.64;102705.94;5030410;27;45363;-73
2021/12/14 06:10:19;;;;;;;;;3.25;2.25;;;;;21.92;38.36;102694.75;5030522;28;45506;-74
2021/12/14 06:12:44;;;;;;;;;2.00;1.50;;;;;21.86;38.37;102685.50;5030656;27;45307;-73
2021/12/14 06:15:18;;;;;;;;;2.00;2.00;;;;;21.84;38.70;102683.00;5028881;28;45504;-73
2021/12/14 06:17:44;;;;;;;;;2.00;1.00;;;;;21.96;38.14;102704.94;5030948;28;45701;-73
2021/12/14 06:20:18;;;;;;;;;3.75;3.75;;;;;21.85;38.51;102689.13;5011034;28;45425;-73
2021/12/14 06:22:44;;;;;;;;;3.50;3.00;;;;;21.92;38.28;102703.56;5028518;27;45348;-73
2021/12/14 06:25:20;;;;;;;;;3.00;3.00;;;;;22.01;38.31;102706.38;5029998;28;46227;-74
2021/12/14 06:27:46;;;;;;;;;5.00;3.25;;;;;21.99;38.34;102697.72;5028777;28;45381;-73
2021/12/14 06:30:15;;;;;;;;;4.25;2.75;;;;;21.98;38.33;102703.97;5030070;27;45402;-73
2021/12/14 06:32:45;;;;;;;;;4.75;2.75;;;;;21.91;38.19;102709.81;5031339;27;45395;-75
2021/12/14 06:35:12;;;;;;;;;4.25;3.00;;;;;22.02;38.66;102721.28;5033766;28;45433;-75
2021/12/14 06:40:49;;;;;;;;;4.00;4.00;;;;;22.01;38.46;102732.88;5027244;28;45451;-73
2021/12/14 06:43:19;;;;;;;;;3.00;3.00;;;;;22.02;38.26;102735.38;5027564;28;45368;-72
2021/12/14 06:45:55;;;;;;;;;2.00;2.00;;;;;21.60;38.23;102662.09;5042218;27;45546;-71
2021/12/14 06:48:24;;;;;;;;;3.00;2.25;;;;;22.04;38.78;102729.97;5033270;28;45448;-71
2021/12/14 06:50:59;;;;;;;;;4.00;2.00;;;;;22.05;38.77;102731.63;5031069;28;45628;-72
2021/12/14 06:53:26;;;;;;;;;1.75;1.75;;;;;22.04;38.90;102730.78;5034280;28;45347;-70
2021/12/14 06:55:54;;;;;;;;;1.50;1.50;;;;;22.03;39.07;102721.16;5031187;28;46430;-73
2021/12/14 06:58:20;;;;;;;;;3.25;2.00;;;;;22.06;38.74;102720.06;5032254;28;45578;-72
2021/12/14 07:00:53;;;;;;;;;4.00;2.75;;;;;22.05;38.97;102721.88;5032210;28;45424;-73
2021/12/14 07:03:19;;;;;;;;;2.00;2.00;;;;;22.09;38.45;102726.91;5030205;28;45738;-72
2021/12/14 07:05:49;;;;;;;;;3.75;2.25;;;;;22.08;38.51;102731.38;5032943;28;45480;-73
2021/12/14 07:08:24;;;;;;;;;2.75;2.75;;;;;22.08;38.93;102728.72;5034181;28;45438;-72
2021/12/14 07:10:51;;;;;;;;;3.00;3.00;;;;;22.00;38.76;102715.28;5039524;27;45279;-73
2021/12/14 07:13:39;;;;;;;;;2.75;2.00;;;;;22.10;38.47;102729.41;5031934;28;45336;-72
2021/12/14 07:16:19;;;;;;;;;2.50;2.50;;;;;22.09;38.55;102726.91;5032146;28;45406;-73
2021/12/14 07:18:47;;;;;;;;;2.25;2.25;;;;;22.11;38.50;102732.91;5032572;28;45750;-73
2021/12/14 07:21:13;;;;;;;;;2.50;2.50;;;;;22.02;38.56;102726.59;5032914;27;45559;-73
2021/12/14 07:23:38;;;;;;;;;2.25;2.25;;;;;22.11;39.04;102735.56;5033621;27;45450;-73
2021/12/14 07:26:09;;;;;;;;;3.50;3.50;;;;;22.10;38.52;102732.06;5034649;28;46183;-73
2021/12/14 07:28:40;;;;;;;;;2.25;2.25;;;;;22.05;38.74;102724.53;5032208;27;45488;-73
2021/12/14 07:31:15;;;;;;;;;4.00;4.00;;;;;22.08;38.47;102739.31;5031798;28;45393;-73
2021/12/14 07:33:46;;;;;;;;;2.00;2.00;;;;;22.08;39.02;102747.25;5031222;28;45537;-72
2021/12/14 07:36:19;;;;;;;;;3.00;3.00;;;;;21.98;38.65;102727.84;5032138;28;47475;-72
2021/12/14 07:39:01;;;;;;;;;2.25;2.00;;;;;22.07;38.84;102749.06;5032800;28;45500;-74
2021/12/14 07:41:30;;;;;;;;;2.75;2.50;;;;;22.06;39.03;102752.72;5034384;28;45304;-73
2021/12/14 07:43:58;;;;;;;;;2.50;2.50;;;;;22.06;38.80;102746.56;5032000;28;45766;-73
2021/12/14 07:46:39;;;;;;;;;2.50;2.50;;;;;22.06;39.03;102746.56;5030048;28;47283;-73
2021/12/14 07:49:35;;;;;;;;;4.50;3.25;;;;;22.03;38.53;102749.47;5032212;28;45495;-73
2021/12/14 07:52:07;;;;;;;;;6.25;4.00;;;;;22.05;38.92;102745.72;5032285;27;45432;-73
2021/12/14 07:54:37;;;;;;;;;3.75;3.00;;;;;22.05;38.44;102756.31;5032461;28;45522;-73
2021/12/14 07:57:07;;;;;;;;;3.00;3.00;;;;;21.99;39.04;102751.53;5014380;28;45532;-73
2021/12/14 07:59:36;;;;;;;;;2.25;2.25;;;;;22.07;39.07;102761.47;5033634;28;45282;-73
2021/12/14 08:02:22;;;;;;;;;3.00;3.00;;;;;22.07;38.29;102754.38;5031998;28;45368;-73
2021/12/14 08:04:51;;;;;;;;;3.00;3.00;;;;;22.07;38.63;102761.47;5031985;28;45527;-73
2021/12/14 08:07:36;;;;;;;;;3.25;3.25;;;;;22.07;38.91;102770.28;5031777;28;45489;-73
2021/12/14 08:10:25;;;;;;;;;2.50;2.50;;;;;22.07;38.94;102774.72;5031945;28;45462;-73
2021/12/14 08:13:08;;;;;;;;;3.00;3.00;;;;;22.06;38.33;102776.56;5012487;28;45309;-73
2021/12/14 08:15:38;;;;;;;;;3.25;3.25;;;;;22.03;38.93;102770.69;5032156;28;45608;-73
2021/12/14 08:18:07;;;;;;;;;4.00;4.00;;;;;22.06;38.73;102781.88;5014975;28;46137;-74
2021/12/14 08:20:35;;;;;;;;;2.00;2.00;;;;;22.01;38.67;102772.63;5033678;27;45398;-73
2021/12/14 08:23:24;;;;;;;;;3.00;3.00;;;;;22.05;38.62;102788.13;5031343;27;45225;-73
2021/12/14 08:25:54;;;;;;;;;5.75;2.50;;;;;21.95;38.58;102780.16;5012213;28;45462;-73
2021/12/14 08:28:21;;;;;;;;;3.75;3.00;;;;;21.98;38.72;102788.78;5031674;27;45560;-73
2021/12/14 08:30:58;;;;;;;;;2.50;2.50;;;;;22.03;38.92;102792.72;5031757;28;45416;-73
2021/12/14 08:33:27;;;;;;;;;5.50;3.25;;;;;22.03;38.67;102792.72;5032140;27;45500;-73
2021/12/14 08:35:56;;;;;;;;;3.75;3.00;;;;;21.98;39.00;102784.34;5031770;28;45608;-72
2021/12/14 08:38:22;;;;;;;;;3.50;2.50;;;;;22.03;38.81;102797.19;5033704;28;47426;-73
2021/12/14 08:40:56;;;;;;;;;4.00;4.00;;;;;22.00;38.96;102787.69;5031275;28;45383;-73
2021/12/14 08:43:31;;;;;;;;;4.00;3.25;;;;;21.98;38.39;102794.94;5031614;28;45466;-73
2021/12/14 08:46:00;;;;;;;;;5.00;3.00;;;;;22.01;38.34;102792.03;5031684;28;45441;-73
2021/12/14 08:48:33;;;;;;;;;4.00;2.00;;;;;21.95;38.73;102779.31;5029241;28;47301;-73
2021/12/14 08:51:13;;;;;;;;;2.00;2.00;;;;;22.01;38.90;102797.34;5030875;28;45400;-73
2021/12/14 08:53:44;;;;;;;;;3.00;3.00;;;;;21.67;38.66;102750.69;5030153;28;45343;-73
2021/12/14 08:56:11;;;;;;;;;3.00;3.00;;;;;21.92;38.64;102796.31;5032845;28;45574;-73
2021/12/14 08:58:37;;;;;;;;;6.25;3.75;;;;;22.01;38.87;102809.75;5029973;28;48778;-73
2021/12/14 09:01:12;;;;;;;;;3.50;2.25;;;;;22.00;38.75;102805.41;5031226;28;45389;-73
2021/12/14 09:03:44;;;;;;;;;4.00;3.00;;;;;21.99;38.55;102815.16;5029982;28;45700;-73
2021/12/14 09:06:19;;;;;;;;;3.00;3.00;;;;;21.89;38.71;102799.22;5031527;28;45457;-73
2021/12/14 09:08:46;;;;;;;;;3.50;3.00;;;;;22.00;38.61;102821.31;5031562;27;47055;-73
2021/12/14 09:11:17;;;;;;;;;2.50;2.50;;;;;21.99;38.52;102823.09;5030575;28;46001;-73
2021/12/14 09:13:43;;;;;;;;;2.00;2.00;;;;;21.90;38.66;102808.84;5031040;27;45539;-73
2021/12/14 09:16:19;;;;;;;;;4.50;2.00;;;;;21.99;38.32;102825.75;5030988;28;45515;-73
2021/12/14 09:18:51;;;;;;;;;5.00;3.00;;;;;21.99;38.77;102822.28;5031208;28;46294;-73
2021/12/14 09:21:20;;;;;;;;;3.00;3.00;;;;;21.99;38.92;102827.59;5031334;28;45274;-73
2021/12/14 09:23:52;;;;;;;;;4.00;4.00;;;;;21.99;38.38;102820.47;5030056;27;45487;-73
2021/12/14 09:26:22;;;;;;;;;2.00;2.00;;;;;22.00;38.33;102829.25;5033142;28;45374;-73
2021/12/14 09:28:49;;;;;;;;;3.00;3.00;;;;;22.00;38.91;102826.59;5030827;27;46278;-73
2021/12/14 09:31:20;;;;;;;;;2.00;2.00;;;;;22.00;38.41;102829.25;5029838;27;45443;-73
2021/12/14 09:33:48;;;;;;;;;3.50;2.50;;;;;21.89;38.68;102812.47;5031215;27;45408;-73
2021/12/14 09:36:14;;;;;;;;;3.25;3.25;;;;;22.00;38.38;102835.41;5031331;28;45513;-73
2021/12/14 09:38:55;;;;;;;;;3.75;3.75;;;;;21.96;38.42;102828.69;5031646;28;45525;-73
2021/12/14 09:41:25;;;;;;;;;5.00;3.50;;;;;22.01;38.30;102837.09;5037263;27;45432;-73
2021/12/14 09:43:51;;;;;;;;;3.50;3.00;;;;;21.86;38.40;102823.28;5029544;27;45497;-73
2021/12/14 09:46:18;;;;;;;;;5.75;3.00;;;;;22.01;38.28;102841.56;5030746;28;45611;-73
2021/12/14 09:48:54;;;;;;;;;2.75;2.00;;;;;22.01;38.29;102846.84;5030558;28;46065;-73
2021/12/14 09:51:24;;;;;;;;;3.50;3.50;;;;;21.84;38.33;102819.94;5029766;28;45567;-73
2021/12/14 09:53:54;;;;;;;;;5.00;3.25;;;;;22.01;38.59;102849.50;5030192;28;45819;-73
2021/12/14 09:56:23;;;;;;;;;4.75;4.00;;;;;21.98;38.27;102850.59;5028562;28;45403;-73
2021/12/14 09:58:58;;;;;;;;;4.00;4.00;;;;;22.01;38.76;102853.00;5026191;27;46427;-73
2021/12/14 10:01:46;;;;;;;;;2.00;2.00;;;;;22.01;38.57;102849.50;5026053;28;45302;-73
2021/12/14 10:04:26;;;;;;;;;3.25;3.25;;;;;22.01;38.79;102854.81;5025820;28;45464;-73
2021/12/14 10:06:52;;;;;;;;;2.50;2.50;;;;;21.91;38.38;102834.38;5025960;28;45399;-73
2021/12/14 10:09:22;;;;;;;;;4.00;4.00;;;;;22.00;38.76;102851.31;5028414;28;46938;-73
2021/12/14 10:14:21;;;;;;;;;4.00;4.00;;;;;22.00;38.76;102847.81;5017234;28;45839;-73
2021/12/14 10:16:47;;;;;;;;;4.00;4.00;;;;;21.99;38.31;102844.31;5017700;28;45387;-73
2021/12/14 10:19:20;;;;;;;;;2.75;2.25;;;;;21.95;38.35;102851.69;5017448;28;46134;-73
2021/12/14 10:21:51;;;;;;;;;4.75;3.75;;;;;21.74;38.71;102809.28;5016766;27;45418;-73
2021/12/14 10:24:18;;;;;;;;;4.25;4.25;;;;;21.96;38.22;102849.91;5013819;27;45330;-73
2021/12/14 10:26:49;;;;;;;;;4.00;4.00;;;;;21.84;38.42;102839.31;5015256;28;45280;-73
2021/12/14 10:29:16;;;;;;;;;5.75;3.75;;;;;21.99;38.17;102856.75;5018553;28;46185;-73
2021/12/14 10:31:51;;;;;;;;;2.50;2.50;;;;;21.94;38.51;102852.66;5026633;28;45474;-73
2021/12/14 10:34:28;;;;;;;;;4.00;4.00;;;;;21.98;38.69;102866.50;5030178;27;45283;-73
2021/12/14 10:37:07;;;;;;;;;3.75;3.75;;;;;21.96;38.79;102848.06;5029748;28;45670;-73
2021/12/14 10:44:50;;;;;;;;;5.00;3.75;;;;;21.71;38.39;102807.72;5028429;28;45412;-73
2021/12/14 10:47:20;;;;;;;;;4.25;4.00;;;;;21.97;38.57;102840.97;5033283;27;45518;-73
2021/12/14 10:49:46;;;;;;;;;5.50;4.00;;;;;21.91;38.31;102831.72;5028586;28;45983;-73
2021/12/14 10:52:18;;;;;;;;;2.75;2.75;;;;;21.96;38.78;102850.72;5029468;27;45431;-73
2021/12/14 10:54:47;;;;;;;;;5.00;3.75;;;;;21.93;38.51;102844.84;5031401;27;45354;-73
2021/12/14 10:57:16;;;;;;;;;4.00;4.00;;;;;21.95;38.43;102845.56;5029901;28;45565;-73
2021/12/14 10:59:45;;;;;;;;;5.00;4.00;;;;;21.96;38.21;102841.94;5030645;27;48329;-73
2021/12/14 11:02:11;;;;;;;;;6.00;3.75;;;;;21.97;38.31;102846.25;5029372;28;45517;-73
2021/12/14 11:04:42;;;;;;;;;3.50;3.50;;;;;21.89;38.62;102832.81;5029578;28;45411;-72
2021/12/14 11:07:14;;;;;;;;;4.75;3.25;;;;;21.98;38.43;102847.94;5029239;28;45525;-73
2021/12/14 11:09:43;;;;;;;;;5.50;4.25;;;;;21.98;38.12;102850.59;5028437;28;45515;-73
2021/12/14 11:12:20;;;;;;;;;3.50;2.50;;;;;21.92;38.74;102838.72;5029431;27;45442;-73
2021/12/14 11:14:49;;;;;;;;;5.50;4.00;;;;;22.00;38.38;102845.16;5030193;28;45452;-73
2021/12/14 11:20:11;;;;;;;;;6.25;5.00;;;;;21.99;38.57;102838.19;5029207;28;45921;-73
2021/12/14 11:23:02;;;;;;;;;4.00;4.00;;;;;21.99;38.14;102839.00;5031803;27;45579;-73
2021/12/14 11:25:30;;;;;;;;;4.00;2.00;;;;;21.99;38.63;102833.72;5032529;28;45275;-74
2021/12/14 11:28:04;;;;;;;;;4.50;4.50;;;;;21.99;38.37;102833.72;5031408;28;45616;-73
2021/12/14 11:30:56;;;;;;;;;5.75;4.00;;;;;21.99;38.60;102836.34;5032387;28;47020;-73
2021/12/14 11:33:26;;;;;;;;;5.25;4.00;;;;;21.99;38.50;102832.91;5018212;28;45596;-73
2021/12/14 11:35:55;;;;;;;;;6.75;5.00;;;;;21.96;38.17;102823.41;5032196;28;45342;-73
2021/12/14 11:38:36;;;;;;;;;4.00;4.00;;;;;21.98;38.11;102824.09;5034617;28;45295;-73
2021/12/14 11:41:36;;;;;;;;;4.00;4.00;;;;;21.99;38.15;102827.59;5031426;28;47249;-73
2021/12/14 11:44:04;;;;;;;;;5.75;4.00;;;;;21.99;38.34;102824.94;5031658;28;45516;-73
2021/12/14 11:46:32;;;;;;;;;4.75;4.00;;;;;21.92;38.76;102803.41;5032380;28;45383;-73
2021/12/14 11:49:02;;;;;;;;;5.00;4.25;;;;;21.98;38.66;102817.94;5031880;28;45487;-73
2021/12/14 11:51:30;;;;;;;;;5.00;4.00;;;;;21.98;38.61;102812.66;5032237;28;46940;-73
2021/12/14 11:53:58;;;;;;;;;4.50;4.25;;;;;21.95;38.10;102809.31;5032357;28;45292;-73
2021/12/14 11:56:26;;;;;;;;;5.00;5.00;;;;;21.91;38.36;102801.75;5034535;28;45447;-73
2021/12/14 11:59:00;;;;;;;;;5.00;4.00;;;;;21.96;38.62;102804.84;5032145;28;45524;-73
2021/12/14 12:01:29;;;;;;;;;4.25;4.00;;;;;21.96;38.26;102807.50;5031960;28;46329;-73
2021/12/14 12:03:57;;;;;;;;;3.75;3.00;;;;;21.95;38.26;102798.69;5031673;28;45279;-73
2021/12/14 12:09:31;;;;;;;;;5.00;5.00;;;;;21.95;38.58;102798.69;5019318;28;45481;-73
2021/12/14 12:12:13;;;;;;;;;3.00;3.00;;;;;21.96;38.12;102796.91;5032006;28;46035;-73
2021/12/14 12:14:59;;;;;;;;;5.00;4.75;;;;;21.94;38.06;102794.34;5030644;28;45378;-73
2021/12/14 12:17:30;;;;;;;;;5.25;4.25;;;;;21.95;38.46;102803.16;5033732;28;45449;-73
2021/12/14 12:20:23;;;;;;;;;5.75;5.75;;;;;21.94;38.56;102798.81;5030302;28;45324;-73
2021/12/14 12:22:49;;;;;;;;;5.50;4.75;;;;;21.94;38.37;102806.75;5031384;28;47404;-72
2021/12/14 12:25:29;;;;;;;;;5.50;4.00;;;;;21.94;38.67;102810.25;5031625;28;45424;-73
2021/12/14 12:27:57;;;;;;;;;5.00;5.00;;;;;21.95;38.53;102811.09;5032038;28;45303;-73
2021/12/14 12:30:34;;;;;;;;;4.00;4.00;;;;;21.95;38.12;102811.09;5031877;28;45510;-73
2021/12/14 12:33:08;;;;;;;;;5.50;4.25;;;;;21.94;38.64;102812.06;5031220;28;47620;-73